Time;durP1;ratioP1;P1;durP2;ratioP2;P2;SDS_P1;SDS_P2;PMS_P1;PMS_P2;Temp;Humidity;BMP_temperature;BMP_pressure;BME280_temperature;BME280_humidity;BME280_pressure;Samples;Min_cycle;Max_cycle;Signal;HPM_P1;HPM_P2
2023/06/27 00:00:15;;;;;;;4.40;1.30;;;;;;;16.33;61.29;101957.03;7379125;19;20355;-68
2023/06/27 00:02:45;;;;;;;1.67;0.80;;;;;;;16.30;61.62;101954.69;7380617;19;22221;-68
2023/06/27 00:05:14;;;;;;;4.13;1.20;;;;;;;16.27;62.00;101957.75;7375824;19;20394;-69
2023/06/27 00:07:44;;;;;;;4.20;1.08;;;;;;;16.26;62.11;101956.09;7382250;19;19929;-69
2023/06/27 00:10:13;;;;;;;3.70;1.20;;;;;;;16.18;62.14;101953.44;7382490;19;20274;-68
2023/06/27 00:12:45;;;;;;;5.18;1.30;;;;;;;16.15;62.29;101958.41;7382454;19;19933;-70
2023/06/27 00:15:19;;;;;;;3.95;1.02;;;;;;;16.12;62.38;101956.94;7376367;19;19922;-69
2023/06/27 00:17:47;;;;;;;2.20;0.88;;;;;;;16.07;62.26;101956.66;7378809;19;19926;-69
2023/06/27 00:20:16;;;;;;;4.50;1.20;;;;;;;16.07;62.05;101953.94;7378356;19;20011;-69
2023/06/27 00:22:48;;;;;;;2.08;1.17;;;;;;;16.04;61.99;101961.63;7378163;19;19918;-69
2023/06/27 00:25:19;;;;;;;3.42;1.13;;;;;;;16.00;62.22;101958.44;7376795;19;19929;-69
2023/06/27 00:27:53;;;;;;;4.95;1.30;;;;;;;15.99;62.91;101955.88;7377790;19;19922;-69
2023/06/27 00:30:22;;;;;;;3.13;1.30;;;;;;;15.92;62.49;101955.78;7378868;19;19925;-69
2023/06/27 00:32:51;;;;;;;7.55;1.65;;;;;;;15.87;62.56;101959.06;7376958;19;19926;-69
2023/06/27 00:35:20;;;;;;;3.25;1.30;;;;;;;15.82;62.68;101956.06;7379958;19;19926;-69
2023/06/27 00:37:48;;;;;;;5.15;1.13;;;;;;;15.82;63.20;101956.06;7377333;19;19918;-69
2023/06/27 00:40:17;;;;;;;5.35;1.48;;;;;;;15.82;63.19;101949.78;7377877;19;20396;-69
2023/06/27 00:42:46;;;;;;;8.40;2.15;;;;;;;15.84;63.22;101953.97;7376280;19;20347;-69
2023/06/27 00:45:18;;;;;;;6.00;1.65;;;;;;;15.82;63.73;101949.78;7378468;19;20489;-68
2023/06/27 00:47:47;;;;;;;4.00;1.30;;;;;;;15.76;63.69;101947.78;7379120;19;19982;-68
2023/06/27 00:50:16;;;;;;;2.38;1.13;;;;;;;15.73;63.61;101950.88;7377967;19;20341;-68
2023/06/27 00:52:45;;;;;;;5.75;1.50;;;;;;;15.70;63.83;101943.97;7377359;19;20415;-68
2023/06/27 00:55:14;;;;;;;2.60;1.60;;;;;;;15.70;64.16;101945.81;7377067;19;20288;-68
2023/06/27 00:57:44;;;;;;;5.32;1.52;;;;;;;15.68;63.93;101937.00;7377976;19;20363;-68
2023/06/27 01:00:15;;;;;;;2.47;1.50;;;;;;;15.66;64.56;101937.19;7377025;19;20244;-69
2023/06/27 01:02:47;;;;;;;6.60;1.50;;;;;;;15.67;64.73;101947.03;7378938;19;19925;-68
2023/06/27 01:05:18;;;;;;;3.90;1.70;;;;;;;15.67;64.62;101940.75;7373501;19;19922;-68
2023/06/27 01:07:53;;;;;;;3.63;1.38;;;;;;;15.65;65.28;101948.25;7373213;19;20357;-68
2023/06/27 01:10:29;;;;;;;2.20;1.33;;;;;;;15.61;64.62;101947.78;7376528;19;19926;-68
2023/06/27 01:13:05;;;;;;;2.38;1.45;;;;;;;15.60;65.09;101942.50;7376758;19;20380;-68
2023/06/27 01:15:35;;;;;;;5.43;1.55;;;;;;;15.58;64.92;101941.84;7375667;19;19923;-67
2023/06/27 01:18:07;;;;;;;4.80;1.70;;;;;;;15.58;65.03;101947.28;7379102;19;19936;-68
2023/06/27 01:20:36;;;;;;;4.18;1.52;;;;;;;15.55;65.06;101942.22;7374192;19;19926;-68
2023/06/27 01:23:10;;;;;;;3.40;1.45;;;;;;;15.52;65.45;101942.59;7379218;19;19914;-68
2023/06/27 01:25:42;;;;;;;5.13;1.60;;;;;;;15.50;65.29;101939.16;7373780;19;20525;-68
2023/06/27 01:28:15;;;;;;;5.07;1.40;;;;;;;15.51;65.63;101940.91;7377400;19;20269;-67
2023/06/27 01:30:44;;;;;;;5.32;1.30;;;;;;;15.53;65.27;101938.84;7373673;19;19922;-68
2023/06/27 01:33:19;;;;;;;4.70;1.67;;;;;;;15.52;65.85;101934.44;7374726;19;19981;-68
2023/06/27 01:35:54;;;;;;;5.20;1.70;;;;;;;15.51;65.71;101936.31;7381574;19;19929;-68
2023/06/27 01:38:28;;;;;;;4.72;1.83;;;;;;;15.42;66.45;101943.66;7384100;19;19930;-68
2023/06/27 01:40:59;;;;;;;4.97;1.50;;;;;;;15.41;65.86;101939.25;7381657;19;19933;-68
2023/06/27 01:43:30;;;;;;;;;;;;;;;15.17;67.78;101939.44;7386185;19;19987;-68
2023/06/27 01:45:59;;;;;;;3.22;1.52;;;;;;;15.31;65.66;101938.66;7383405;19;19922;-68
2023/06/27 01:48:28;;;;;;;3.15;1.60;;;;;;;15.28;65.60;101936.28;7381689;19;19923;-68
2023/06/27 01:50:57;;;;;;;7.03;1.70;;;;;;;15.25;65.90;101942.09;7384155;19;20256;-67
2023/06/27 01:53:26;;;;;;;4.43;1.83;;;;;;;15.23;66.04;101938.69;7384044;19;19927;-67
2023/06/27 01:55:55;;;;;;;3.30;1.27;;;;;;;15.21;66.14;101931.78;7381947;19;19926;-68
2023/06/27 01:58:26;;;;;;;5.35;1.75;;;;;;;15.16;66.84;101934.19;7381023;19;20292;-67
2023/06/27 02:00:55;;;;;;;4.32;1.77;;;;;;;15.10;66.52;101930.31;7381175;19;19982;-68
2023/06/27 02:03:24;;;;;;;5.22;2.10;;;;;;;15.10;66.99;101935.75;7381074;19;19981;-67
2023/06/27 02:05:52;;;;;;;8.13;2.25;;;;;;;15.12;66.40;101930.16;7380642;19;19926;-68
2023/06/27 02:08:21;;;;;;;3.00;1.50;;;;;;;15.08;66.56;101937.81;7380209;19;20087;-68
2023/06/27 02:10:50;;;;;;;6.95;1.83;;;;;;;15.04;66.94;101938.34;7383474;19;20239;-68
2023/06/27 02:13:18;;;;;;;5.10;1.67;;;;;;;14.99;66.77;101936.19;7384373;19;19929;-67
2023/06/27 02:15:50;;;;;;;2.75;1.85;;;;;;;14.97;67.26;101932.81;7383987;19;19923;-67
2023/06/27 02:18:19;;;;;;;6.00;1.80;;;;;;;14.95;67.13;101932.13;7382755;19;19928;-66
2023/06/27 02:20:47;;;;;;;5.78;1.70;;;;;;;14.93;67.14;101926.03;7377269;19;19929;-68
2023/06/27 02:23:16;;;;;;;4.72;1.40;;;;;;;14.94;67.05;101922.28;7380808;19;19919;-68
2023/06/27 02:25:46;;;;;;;4.20;1.45;;;;;;;14.94;67.10;101922.28;7378821;19;20344;-68
2023/06/27 02:28:14;;;;;;;3.95;1.25;;;;;;;14.93;67.52;101926.88;7379798;19;20028;-67
2023/06/27 02:30:44;;;;;;;2.92;1.35;;;;;;;14.92;67.20;101930.63;7379063;19;19926;-67
2023/06/27 02:33:15;;;;;;;5.97;1.90;;;;;;;14.90;67.78;101920.97;7378357;19;19918;-67
2023/06/27 02:35:44;;;;;;;4.20;1.65;;;;;;;14.85;67.57;101929.66;7378726;19;19978;-68
2023/06/27 02:38:13;;;;;;;4.45;1.48;;;;;;;14.84;67.55;101924.41;7379560;19;20341;-68
2023/06/27 02:40:41;;;;;;;3.92;1.58;;;;;;;14.82;67.28;101918.31;7382012;19;19944;-67
2023/06/27 02:43:10;;;;;;;4.95;1.60;;;;;;;14.82;67.97;101924.59;7380278;19;20006;-67
2023/06/27 02:45:40;;;;;;;4.07;1.33;;;;;;;14.82;67.46;101916.44;7380684;19;19931;-67
2023/06/27 02:48:09;;;;;;;5.88;1.80;;;;;;;14.81;67.68;101922.03;7382052;19;19919;-67
2023/06/27 02:50:41;;;;;;;4.30;1.65;;;;;;;14.78;68.02;101917.84;7388180;19;20280;-68
2023/06/27 02:53:10;;;;;;;3.95;1.35;;;;;;;14.79;67.53;101924.94;7383819;19;20277;-68
2023/06/27 02:55:39;;;;;;;3.05;1.40;;;;;;;14.81;67.25;101916.63;7382033;19;20277;-68
2023/06/27 02:58:07;;;;;;;6.10;1.58;;;;;;;14.81;68.01;101924.75;7380073;19;19928;-68
2023/06/27 03:00:36;;;;;;;4.45;1.80;;;;;;;14.81;67.60;101920.19;7380260;19;19922;-68
2023/06/27 03:03:05;;;;;;;2.53;1.35;;;;;;;14.78;67.66;101923.25;7382434;19;19985;-68
2023/06/27 03:05:34;;;;;;;2.97;1.70;;;;;;;14.78;67.74;101922.41;7377470;19;19929;-68
2023/06/27 03:08:05;;;;;;;3.35;1.60;;;;;;;14.78;67.74;101915.13;7382347;19;19933;-68
2023/06/27 03:10:34;;;;;;;4.32;2.03;;;;;;;14.78;67.57;101922.41;7381118;19;20264;-68
2023/06/27 03:13:03;;;;;;;7.28;1.77;;;;;;;14.75;68.18;101920.06;7381805;19;19978;-68
2023/06/27 03:15:32;;;;;;;5.45;1.42;;;;;;;14.75;67.87;101914.63;7381032;19;19943;-68
2023/06/27 03:18:01;;;;;;;5.97;1.85;;;;;;;14.74;67.82;101915.66;7380697;19;19922;-68
2023/06/27 03:20:29;;;;;;;8.20;1.80;;;;;;;14.71;68.17;101922.25;7378122;19;19978;-68
2023/06/27 03:22:58;;;;;;;6.07;1.58;;;;;;;14.67;68.49;101920.94;7378950;19;20501;-67
2023/06/27 03:25:29;;;;;;;3.83;1.95;;;;;;;14.66;68.64;101926.56;7379417;19;19929;-67
2023/06/27 03:27:59;;;;;;;4.50;2.00;;;;;;;14.63;68.70;101922.31;7373229;19;19918;-69
2023/06/27 03:30:28;;;;;;;7.13;1.90;;;;;;;14.63;68.34;101925.03;7378753;19;19977;-67
2023/06/27 03:32:56;;;;;;;4.35;2.10;;;;;;;14.62;68.43;101923.34;7379657;19;19922;-68
2023/06/27 03:35:25;;;;;;;2.40;1.65;;;;;;;14.61;68.74;101921.66;7378854;19;19989;-68
2023/06/27 03:37:54;;;;;;;5.28;1.80;;;;;;;14.58;68.92;101918.47;7379876;19;20025;-68
2023/06/27 03:40:23;;;;;;;5.70;2.05;;;;;;;14.57;69.01;101922.19;7379574;19;20259;-69
2023/06/27 03:42:55;;;;;;;5.00;1.85;;;;;;;14.56;69.37;101921.34;7372489;19;19925;-68
2023/06/27 03:45:24;;;;;;;2.22;1.60;;;;;;;14.56;68.94;101915.91;7379762;19;19926;-68
2023/06/27 03:47:53;;;;;;;4.05;1.50;;;;;;;14.59;69.03;101922.84;7380258;19;19918;-68
2023/06/27 03:50:22;;;;;;;5.82;1.77;;;;;;;14.58;68.90;101921.19;7387440;19;19991;-68
2023/06/27 03:52:50;;;;;;;8.55;1.92;;;;;;;14.57;69.19;101922.19;7378700;19;19915;-68
2023/06/27 03:55:20;;;;;;;5.03;2.25;;;;;;;14.58;69.32;101924.75;7379928;19;20000;-68
2023/06/27 03:57:49;;;;;;;5.40;1.80;;;;;;;14.58;69.42;101921.19;7377498;19;19943;-68
2023/06/27 04:00:21;;;;;;;6.22;1.85;;;;;;;14.56;69.91;101924.06;7376174;19;19927;-68
2023/06/27 04:02:49;;;;;;;;;;;;;;;14.35;71.65;101921.97;7381540;19;20280;-67
2023/06/27 04:05:18;;;;;;;3.67;2.15;;;;;;;14.54;69.62;101929.66;7380809;19;20046;-67
2023/06/27 04:07:47;;;;;;;2.78;1.67;;;;;;;14.59;69.22;101922.84;7377964;19;20245;-67
2023/06/27 04:10:15;;;;;;;5.72;1.65;;;;;;;14.59;69.26;101918.28;7376802;19;19955;-68
2023/06/27 04:12:44;;;;;;;7.45;2.65;;;;;;;14.56;69.19;101929.47;7380616;19;19969;-68
2023/06/27 04:15:13;;;;;;;6.43;2.00;;;;;;;14.57;69.18;101927.63;7377975;19;19930;-67
2023/06/27 04:17:44;;;;;;;6.07;1.92;;;;;;;14.59;69.43;101930.97;7381306;19;20007;-67
2023/06/27 04:20:14;;;;;;;4.72;1.90;;;;;;;14.61;69.00;101926.25;7377947;19;19922;-67
2023/06/27 04:22:43;;;;;;;7.15;2.30;;;;;;;14.63;69.81;101926.88;7377355;19;19923;-68
2023/06/27 04:25:13;;;;;;;5.18;1.92;;;;;;;14.68;69.38;101924.50;7378497;19;20350;-68
2023/06/27 04:27:41;;;;;;;7.38;1.90;;;;;;;14.73;69.15;101920.22;7376964;19;19950;-67
2023/06/27 04:30:13;;;;;;;5.05;1.88;;;;;;;14.78;69.13;101925.13;7374517;19;19921;-68
2023/06/27 04:32:44;;;;;;;7.05;2.30;;;;;;;14.83;69.29;101928.16;7379170;19;19930;-68
2023/06/27 04:35:15;;;;;;;6.00;1.85;;;;;;;14.85;69.84;101931.50;7377775;19;19925;-69
2023/06/27 04:37:44;;;;;;;4.95;1.80;;;;;;;14.89;69.15;101927.41;7371534;19;19929;-68
2023/06/27 04:40:15;;;;;;;5.03;1.75;;;;;;;14.93;69.01;101931.44;7376875;19;20408;-67
2023/06/27 04:42:45;;;;;;;4.25;1.67;;;;;;;14.96;69.32;101937.41;7377353;19;20630;-68
2023/06/27 04:45:14;;;;;;;5.03;1.80;;;;;;;15.01;69.41;101938.72;7379048;19;19918;-68
2023/06/27 04:47:45;;;;;;;5.05;1.98;;;;;;;15.03;69.48;101929.34;7375591;19;19961;-69
2023/06/27 04:50:18;;;;;;;5.15;1.73;;;;;;;15.09;68.98;101931.38;7379801;19;19951;-67
2023/06/27 04:52:47;;;;;;;3.33;1.92;;;;;;;15.14;68.65;101933.53;7378604;19;19930;-70
2023/06/27 04:55:16;;;;;;;5.30;1.80;;;;;;;15.17;69.38;101931.31;7373915;19;19918;-69
2023/06/27 04:57:45;;;;;;;4.43;2.38;;;;;;;15.21;68.88;101929.91;7374024;19;19932;-67
2023/06/27 05:00:15;;;;;;;4.97;2.00;;;;;;;15.27;68.98;101934.59;7377876;19;20225;-67
2023/06/27 05:02:47;;;;;;;2.42;1.25;;;;;;;15.28;69.15;101936.28;7368319;19;19978;-67
2023/06/27 05:05:15;;;;;;;7.85;2.20;;;;;;;15.32;68.79;101926.75;7376158;19;19922;-68
2023/06/27 05:07:44;;;;;;;4.63;1.58;;;;;;;15.36;68.77;101925.38;7378127;19;20285;-67
2023/06/27 05:10:13;;;;;;;6.57;2.15;;;;;;;15.42;69.01;101926.50;7386062;19;19947;-68
2023/06/27 05:12:42;;;;;;;4.18;1.70;;;;;;;15.48;68.76;101930.38;7385989;19;19934;-67
2023/06/27 05:15:11;;;;;;;3.53;1.45;;;;;;;15.52;68.94;101927.16;7382206;19;19961;-68
2023/06/27 05:17:40;;;;;;;5.03;1.67;;;;;;;15.59;68.60;101933.50;7381328;19;20029;-67
2023/06/27 05:20:13;;;;;;;3.90;1.50;;;;;;;15.66;68.70;101928.22;7387137;19;19941;-67
2023/06/27 05:22:41;;;;;;;7.10;1.63;;;;;;;15.71;68.05;101932.03;7386462;19;19990;-67
2023/06/27 05:25:11;;;;;;;5.95;1.70;;;;;;;15.75;68.13;101927.91;7383198;19;19949;-67
2023/06/27 05:27:40;;;;;;;3.90;1.63;;;;;;;15.81;68.32;101926.34;7382915;19;19914;-67
2023/06/27 05:30:10;;;;;;;5.10;1.77;;;;;;;15.87;67.61;101926.47;7384680;19;19926;-68
2023/06/27 05:32:40;;;;;;;6.45;1.90;;;;;;;15.95;67.67;101935.56;7388333;19;20263;-68
2023/06/27 05:35:13;;;;;;;4.03;1.38;;;;;;;16.00;68.01;101931.25;7380627;19;19926;-67
2023/06/27 05:37:41;;;;;;;5.22;1.60;;;;;;;16.07;67.56;101928.63;7385267;19;19926;-68
2023/06/27 05:40:11;;;;;;;6.30;1.77;;;;;;;16.13;67.64;101919.72;7385827;19;20002;-68
2023/06/27 05:42:40;;;;;;;5.13;1.50;;;;;;;16.19;66.92;101927.94;7385619;19;20014;-68
2023/06/27 05:45:10;;;;;;;5.22;1.60;;;;;;;16.25;67.04;101924.50;7385818;19;20301;-67
2023/06/27 05:47:39;;;;;;;4.97;1.67;;;;;;;16.29;67.29;101922.25;7382281;19;22819;-67
2023/06/27 05:50:09;;;;;;;4.70;1.38;;;;;;;16.34;66.68;101928.81;7388987;19;19919;-68
2023/06/27 05:52:40;;;;;;;4.32;1.70;;;;;;;16.39;67.06;101925.53;7383084;19;20384;-68
2023/06/27 05:55:10;;;;;;;5.78;1.80;;;;;;;16.44;67.20;101917.59;7384613;19;20009;-67
2023/06/27 05:57:39;;;;;;;4.45;1.50;;;;;;;16.52;66.73;101916.69;7385792;19;19943;-69
2023/06/27 06:00:10;;;;;;;5.78;1.58;;;;;;;16.54;67.03;101929.03;7331922;19;19926;-68
2023/06/27 06:02:40;;;;;;;3.40;1.27;;;;;;;16.61;66.67;101935.44;7382754;19;19930;-67
2023/06/27 06:05:10;;;;;;;3.20;1.52;;;;;;;16.70;66.50;101926.13;7384748;19;20332;-67
2023/06/27 06:07:43;;;;;;;6.32;1.20;;;;;;;16.80;65.73;101931.28;7382224;19;19923;-67
2023/06/27 06:10:12;;;;;;;5.55;1.48;;;;;;;16.88;65.41;101939.31;7383143;19;22780;-67
2023/06/27 06:12:43;;;;;;;2.72;1.27;;;;;;;16.94;65.07;101924.09;7385677;19;20248;-67
2023/06/27 06:15:12;;;;;;;2.88;1.15;;;;;;;17.01;64.98;101925.84;7382361;19;19958;-67
2023/06/27 06:17:41;;;;;;;4.90;0.95;;;;;;;17.07;64.78;101930.53;7382090;19;19958;-71
2023/06/27 06:20:11;;;;;;;2.97;1.25;;;;;;;17.14;64.65;101930.59;7373914;19;19993;-70
2023/06/27 06:22:43;;;;;;;3.53;1.33;;;;;;;17.18;64.57;101931.88;7383050;19;19974;-70
2023/06/27 06:25:11;;;;;;;4.05;1.50;;;;;;;17.21;64.69;101929.59;7378736;19;19922;-69
2023/06/27 06:27:40;;;;;;;5.72;1.45;;;;;;;17.27;64.36;101929.88;7380652;19;19957;-68
2023/06/27 06:30:11;;;;;;;4.57;1.35;;;;;;;17.32;64.42;101928.25;7379650;19;19950;-68
2023/06/27 06:32:40;;;;;;;3.08;1.17;;;;;;;17.37;64.39;101928.50;7373228;19;20022;-67
2023/06/27 06:35:10;;;;;;;4.93;1.20;;;;;;;17.41;64.36;101937.97;7363746;19;20632;-67
2023/06/27 06:37:41;;;;;;;3.78;0.90;;;;;;;17.43;64.08;101946.78;7371315;19;19914;-67
2023/06/27 06:40:11;;;;;;;5.75;1.20;;;;;;;17.45;63.64;101939.28;7368465;19;20649;-68
2023/06/27 06:42:40;;;;;;;3.28;1.00;;;;;;;17.51;63.48;101937.66;7371471;19;19935;-69
2023/06/27 06:45:10;;;;;;;8.23;1.23;;;;;;;17.59;63.70;101934.81;7378506;19;19933;-68
2023/06/27 06:47:39;;;;;;;3.40;1.25;;;;;;;17.65;63.39;101928.56;7378000;19;19986;-68
2023/06/27 06:50:09;;;;;;;3.15;1.00;;;;;;;17.73;63.46;101936.63;7373268;19;20571;-70
2023/06/27 06:52:38;;;;;;;8.68;1.25;;;;;;;17.79;62.68;101943.97;7363052;19;20857;-68
2023/06/27 06:55:10;;;;;;;4.93;1.17;;;;;;;17.86;63.05;101944.88;7355722;19;19922;-67
2023/06/27 06:57:39;;;;;;;6.65;1.20;;;;;;;17.94;61.85;101938.44;7377570;19;20554;-69
2023/06/27 07:00:09;;;;;;;5.25;1.13;;;;;;;17.98;61.66;101943.28;7371320;19;20300;-69
2023/06/27 07:02:38;;;;;;;5.43;0.90;;;;;;;18.05;60.74;101935.13;7377598;19;19929;-70
2023/06/27 07:05:08;;;;;;;2.20;1.10;;;;;;;18.14;59.94;101945.69;7380593;19;20508;-69
2023/06/27 07:07:37;;;;;;;1.77;0.70;;;;;;;18.20;59.86;101948.66;7376824;19;19982;-67
2023/06/27 07:10:10;;;;;;;7.55;1.10;;;;;;;18.25;56.83;101951.66;7381494;19;19922;-68
2023/06/27 07:12:40;;;;;;;3.38;0.70;;;;;;;18.32;57.09;101936.16;7367028;19;19930;-67
2023/06/27 07:15:10;;;;;;;5.05;2.00;;;;;;;18.37;56.32;101942.69;7365050;19;20019;-67
2023/06/27 07:17:39;;;;;;;2.33;0.63;;;;;;;18.45;55.84;101939.78;7377956;19;20340;-67
2023/06/27 07:20:10;;;;;;;3.10;0.52;;;;;;;18.51;53.60;101940.84;7376563;19;19922;-68
2023/06/27 07:22:38;;;;;;;3.08;0.65;;;;;;;18.59;53.97;101947.00;7372623;19;19926;-68
2023/06/27 07:25:10;;;;;;;2.30;0.75;;;;;;;18.66;52.40;101941.59;7379746;19;19947;-67
2023/06/27 07:27:39;;;;;;;1.98;0.80;;;;;;;18.72;53.27;101938.06;7381496;19;19982;-70
2023/06/27 07:30:10;;;;;;;3.25;0.60;;;;;;;18.79;52.30;101946.25;7376321;19;19939;-67
2023/06/27 07:32:39;;;;;;;2.30;0.40;;;;;;;18.86;52.60;101942.47;7379014;19;19922;-69
2023/06/27 07:35:10;;;;;;;2.50;0.50;;;;;;;18.99;53.03;101934.31;7377927;19;20320;-70
2023/06/27 07:37:39;;;;;;;4.00;0.50;;;;;;;19.14;52.00;101942.34;7371265;19;19926;-68
2023/06/27 07:40:11;;;;;;;2.45;0.70;;;;;;;19.31;50.92;101948.25;7374591;19;19936;-68
2023/06/27 07:42:40;;;;;;;3.65;0.50;;;;;;;19.43;50.52;101939.25;7382146;19;19935;-68
2023/06/27 07:45:10;;;;;;;1.30;0.60;;;;;;;19.52;50.36;101933.59;7378998;19;20396;-68
2023/06/27 07:47:38;;;;;;;6.45;0.70;;;;;;;19.58;50.93;101943.69;7378152;19;19938;-68
2023/06/27 07:50:08;;;;;;;3.42;0.80;;;;;;;19.67;51.04;101926.88;7355620;19;19932;-70
2023/06/27 07:52:37;;;;;;;3.20;0.75;;;;;;;19.77;51.36;101921.81;7379645;19;19993;-68
2023/06/27 07:55:06;;;;;;;1.85;0.68;;;;;;;19.95;49.83;101940.28;7381674;19;19982;-69
2023/06/27 07:57:38;;;;;;;2.58;0.70;;;;;;;20.06;48.75;101930.63;7372819;19;19922;-69
2023/06/27 08:00:11;;;;;;;5.60;0.40;;;;;;;20.19;49.33;101931.41;7378422;19;20663;-69
2023/06/27 08:02:40;;;;;;;4.70;1.05;;;;;;;20.32;49.37;101925.91;7379038;19;19960;-69
2023/06/27 08:05:10;;;;;;;3.47;0.98;;;;;;;20.39;47.96;101939.59;7378586;19;19911;-69
2023/06/27 08:07:39;;;;;;;1.90;0.50;;;;;;;20.41;47.65;101933.91;7378408;19;19921;-67
2023/06/27 08:10:08;;;;;;;3.78;0.85;;;;;;;20.44;47.57;101939.78;7377969;19;19926;-69
2023/06/27 08:12:40;;;;;;;5.20;0.68;;;;;;;20.48;47.74;101935.56;7380136;19;19919;-69
2023/06/27 08:15:10;;;;;;;1.05;0.50;;;;;;;20.48;47.14;101935.56;7365707;19;20299;-69
2023/06/27 08:17:39;;;;;;;3.35;1.00;;;;;;;20.49;48.44;101937.25;7379028;19;19957;-69
2023/06/27 08:20:10;;;;;;;3.67;1.08;;;;;;;20.54;48.49;101933.84;7376650;19;19926;-67
2023/06/27 08:22:38;;;;;;;2.28;0.77;;;;;;;20.44;49.11;101934.31;7380947;19;20435;-70
2023/06/27 08:25:08;;;;;;;6.40;0.77;;;;;;;20.30;48.90;101954.56;7377073;19;19918;-70
2023/06/27 08:27:40;;;;;;;3.75;0.70;;;;;;;20.09;48.14;101946.59;7379726;19;19925;-69
2023/06/27 08:30:10;;;;;;;3.72;0.80;;;;;;;19.91;49.54;101941.78;7376985;19;19922;-71
2023/06/27 08:32:39;;;;;;;5.55;0.88;;;;;;;19.85;50.12;101951.66;7372773;19;19961;-70
2023/06/27 08:35:09;;;;;;;5.88;0.80;;;;;;;19.87;49.68;101946.84;7378659;19;19918;-70
2023/06/27 08:37:38;;;;;;;4.57;1.20;;;;;;;19.91;50.03;101944.50;7381205;19;19934;-70
2023/06/27 08:40:09;;;;;;;2.65;0.93;;;;;;;19.97;50.22;101940.94;7378442;19;19918;-70
2023/06/27 08:42:41;;;;;;;3.65;0.77;;;;;;;20.08;49.29;101947.63;7377166;19;19971;-68
2023/06/27 08:45:10;;;;;;;1.73;0.70;;;;;;;20.18;49.65;101939.84;7383435;19;19930;-68
2023/06/27 08:47:42;;;;;;;2.88;0.63;;;;;;;20.30;49.08;101935.41;7386042;19;19927;-68
2023/06/27 08:50:14;;;;;;;2.72;0.70;;;;;;;20.38;48.59;101936.00;7384596;19;20264;-70
2023/06/27 08:52:46;;;;;;;5.38;1.08;;;;;;;20.34;47.33;101931.19;7383357;19;19922;-69
2023/06/27 08:55:20;;;;;;;;;;;;;;;20.37;47.39;101928.84;7386158;19;19923;-70
2023/06/27 08:57:53;;;;;;;6.32;0.75;;;;;;;20.54;47.87;101933.84;7384056;19;19925;-69
2023/06/27 09:00:25;;;;;;;1.98;0.40;;;;;;;20.64;46.91;101929.59;7385779;19;20329;-69
2023/06/27 09:02:55;;;;;;;3.00;0.63;;;;;;;20.76;46.23;101927.00;7377565;19;19961;-70
2023/06/27 09:05:24;;;;;;;2.72;0.93;;;;;;;20.78;45.39;101939.44;7386782;19;19922;-69
2023/06/27 09:07:53;;;;;;;1.60;0.43;;;;;;;20.82;46.62;101932.47;7384247;19;19935;-69
2023/06/27 09:10:22;;;;;;;3.47;0.90;;;;;;;20.77;46.64;101923.22;7383508;19;20685;-68
2023/06/27 09:12:56;;;;;;;2.78;0.80;;;;;;;20.77;47.24;101939.66;7381271;19;19929;-68
2023/06/27 09:15:25;;;;;;;2.50;0.65;;;;;;;20.76;47.48;101927.84;7382680;19;19986;-69
2023/06/27 09:17:54;;;;;;;2.72;0.85;;;;;;;20.71;47.72;101919.44;7385006;19;19998;-69
2023/06/27 09:20:23;;;;;;;3.55;1.30;;;;;;;20.55;47.59;101927.31;7382982;19;19955;-68
2023/06/27 09:22:53;;;;;;;2.92;0.77;;;;;;;20.49;48.06;101922.72;7382731;19;19964;-69
2023/06/27 09:25:26;;;;;;;4.28;1.02;;;;;;;20.42;46.93;101925.47;7383342;19;20344;-69
2023/06/27 09:27:58;;;;;;;4.93;1.85;;;;;;;20.55;47.49;101910.88;7381982;19;20291;-68
2023/06/27 09:30:27;;;;;;;3.75;0.70;;;;;;;20.77;46.36;101923.22;7383340;19;19930;-68
2023/06/27 09:32:58;;;;;;;2.88;1.30;;;;;;;20.92;44.97;101917.44;7372973;19;20328;-69
2023/06/27 09:35:31;;;;;;;4.85;1.10;;;;;;;21.09;45.13;101916.72;7380833;19;19994;-69
2023/06/27 09:38:08;;;;;;;1.65;0.98;;;;;;;21.17;44.47;101908.25;7383800;19;19914;-68
2023/06/27 09:40:38;;;;;;;2.75;0.82;;;;;;;21.14;45.35;101908.69;7376663;19;19923;-68
2023/06/27 09:43:12;;;;;;;2.67;0.70;;;;;;;21.10;45.11;101925.75;7379872;19;19930;-68
2023/06/27 09:45:40;;;;;;;3.20;1.00;;;;;;;21.06;45.40;101910.81;7380637;19;23139;-68
2023/06/27 09:48:16;;;;;;;6.93;1.75;;;;;;;21.10;45.34;101918.38;7380435;19;19919;-68
2023/06/27 09:50:45;;;;;;;3.55;0.82;;;;;;;21.16;44.34;101911.19;7386211;19;19942;-68
2023/06/27 09:53:13;;;;;;;3.00;0.88;;;;;;;21.25;43.44;101912.63;7382614;19;19918;-69
2023/06/27 09:55:48;;;;;;;4.28;0.90;;;;;;;21.22;43.39;101913.06;7374757;19;19929;-68
2023/06/27 09:58:28;;;;;;;3.25;1.15;;;;;;;21.11;43.35;101922.78;7372685;19;20495;-68
2023/06/27 10:00:57;;;;;;;4.28;1.55;;;;;;;21.03;44.41;101924.97;7376811;19;20308;-68
2023/06/27 10:03:27;;;;;;;5.13;0.93;;;;;;;20.93;45.32;101930.06;7380608;19;19922;-69
2023/06/27 10:05:56;;;;;;;9.43;1.13;;;;;;;20.80;45.56;101926.34;7375834;19;20479;-68
2023/06/27 10:08:25;;;;;;;3.13;1.00;;;;;;;20.77;46.21;101935.00;7376933;19;20265;-71
2023/06/27 10:10:56;;;;;;;11.52;1.17;;;;;;;20.88;46.25;101938.13;7382275;19;20357;-69
2023/06/27 10:13:28;;;;;;;4.00;0.90;;;;;;;21.04;45.50;101927.50;7383420;19;19927;-70
2023/06/27 10:15:57;;;;;;;2.15;0.40;;;;;;;21.34;44.10;101924.16;7386560;19;19946;-69
2023/06/27 10:18:26;;;;;;;3.90;0.93;;;;;;;21.45;43.90;101913.28;7400177;19;20021;-69
2023/06/27 10:20:58;;;;;;;5.07;1.33;;;;;;;21.44;42.38;101927.25;7403001;19;19922;-68
2023/06/27 10:23:28;;;;;;;2.63;0.65;;;;;;;21.38;43.39;101918.00;7404533;19;19922;-69
2023/06/27 10:25:56;;;;;;;3.20;0.65;;;;;;;21.58;42.68;101915.94;7404138;19;19910;-69
2023/06/27 10:28:31;;;;;;;1.85;0.68;;;;;;;21.81;41.74;101912.56;7405049;19;19915;-69
2023/06/27 10:31:02;;;;;;;5.68;1.17;;;;;;;21.88;43.03;101920.72;7403253;19;19921;-69
2023/06/27 10:33:31;;;;;;;6.55;1.00;;;;;;;21.92;43.15;101924.69;7402620;19;19919;-69
2023/06/27 10:36:05;;;;;;;2.08;0.80;;;;;;;22.01;44.03;101915.13;7402364;19;19986;-69
2023/06/27 10:38:37;;;;;;;6.47;0.63;;;;;;;22.09;42.47;101945.03;7405993;19;20388;-69
2023/06/27 10:41:12;;;;;;;4.47;1.48;;;;;;;22.20;41.93;101924.22;7402914;19;19922;-69
2023/06/27 10:43:54;;;;;;;4.05;0.70;;;;;;;22.22;42.29;101916.59;7402379;19;19924;-69
2023/06/27 10:46:24;;;;;;;6.10;1.38;;;;;;;22.45;42.25;101901.09;7404110;19;20328;-69
2023/06/27 10:48:54;;;;;;;7.20;1.60;;;;;;;22.54;42.25;101912.59;7403580;19;20237;-70
2023/06/27 10:51:26;;;;;;;5.25;1.30;;;;;;;22.55;40.29;101915.13;7402859;19;19922;-70
2023/06/27 10:54:14;;;;;;;2.28;0.52;;;;;;;22.71;39.94;101904.59;7402821;19;20472;-69
2023/06/27 10:56:45;;;;;;;6.22;1.05;;;;;;;22.96;40.65;101905.28;7401670;19;19918;-69
2023/06/27 10:59:18;;;;;;;2.75;0.80;;;;;;;22.76;40.18;101902.84;7401776;19;19915;-69
2023/06/27 11:01:53;;;;;;;5.90;0.90;;;;;;;22.77;39.98;101910.03;7402007;19;19925;-69
2023/06/27 11:04:25;;;;;;;4.25;1.05;;;;;;;22.93;40.78;101914.00;7402033;19;19918;-70
2023/06/27 11:07:00;;;;;;;2.70;0.93;;;;;;;23.08;40.74;101914.44;7397360;19;20114;-69
2023/06/27 11:09:30;;;;;;;4.28;0.80;;;;;;;22.97;40.62;101913.31;7398999;19;19946;-68
2023/06/27 11:12:11;;;;;;;3.88;0.90;;;;;;;22.86;40.57;101921.53;7399973;19;20268;-69
2023/06/27 11:14:48;;;;;;;7.32;1.00;;;;;;;22.65;40.96;101920.09;7401073;19;19914;-69
2023/06/27 11:17:20;;;;;;;2.42;0.70;;;;;;;22.43;41.21;101917.00;7403777;19;20284;-69
2023/06/27 11:19:51;;;;;;;6.38;1.45;;;;;;;22.51;42.30;101915.81;7403518;19;19923;-69
2023/06/27 11:22:20;;;;;;;4.95;1.92;;;;;;;22.44;41.71;101926.88;7405438;19;19985;-69
2023/06/27 11:24:49;;;;;;;3.15;0.82;;;;;;;22.34;42.95;101926.59;7403849;19;20261;-69
2023/06/27 11:27:19;;;;;;;5.57;0.88;;;;;;;22.23;42.46;101934.72;7401917;19;19933;-69
2023/06/27 11:29:50;;;;;;;3.58;1.15;;;;;;;22.32;41.67;101925.13;7402881;19;19985;-70
2023/06/27 11:32:19;;;;;;;2.10;1.02;;;;;;;22.28;42.48;101921.16;7403450;19;19922;-70
2023/06/27 11:34:48;;;;;;;5.35;1.05;;;;;;;22.38;42.62;101916.00;7402800;19;20348;-69
2023/06/27 11:37:17;;;;;;;3.60;0.82;;;;;;;22.44;42.54;101920.53;7405873;19;19922;-69
2023/06/27 11:39:56;;;;;;;3.50;1.15;;;;;;;22.36;43.24;101918.09;7402897;19;19919;-69